createdAt,value
2018-11-25T00:02:19.112Z,5.80
2018-11-25T00:05:17.729Z,6.00
2018-11-25T00:08:16.242Z,6.10
2018-11-25T00:11:14.703Z,6.20
2018-11-25T00:14:13.047Z,6.20
2018-11-25T00:17:11.566Z,6.10
2018-11-25T00:20:09.333Z,6.00
2018-11-25T00:23:07.850Z,5.90
2018-11-25T00:26:06.448Z,5.90
2018-11-25T00:29:04.792Z,5.80
2018-11-25T00:32:03.848Z,5.70
2018-11-25T00:35:02.246Z,5.60
2018-11-25T00:38:00.571Z,5.50
2018-11-25T00:40:58.765Z,5.30
2018-11-25T00:43:57.123Z,5.20
2018-11-25T00:46:55.442Z,5.10
2018-11-25T00:49:53.663Z,4.90
2018-11-25T00:52:51.634Z,4.80
2018-11-25T00:55:49.978Z,4.70
2018-11-25T00:58:48.681Z,4.60
2018-11-25T01:01:47.544Z,4.50
2018-11-25T01:04:46.183Z,4.50
2018-11-25T01:07:44.487Z,4.40
2018-11-25T01:10:42.981Z,4.50
2018-11-25T01:13:40.896Z,4.50
2018-11-25T01:16:51.330Z,4.60
2018-11-25T01:19:49.603Z,4.60
2018-11-25T01:22:47.898Z,4.60
2018-11-25T01:25:46.286Z,4.70
2018-11-25T01:28:44.845Z,4.70
2018-11-25T01:31:42.993Z,4.60
2018-11-25T01:34:41.269Z,4.60
2018-11-25T01:37:39.611Z,4.50
2018-11-25T01:40:38.788Z,4.40
2018-11-25T01:43:37.022Z,4.20
2018-11-25T01:46:35.055Z,4.20
2018-11-25T01:49:33.584Z,4.10
2018-11-25T01:52:31.722Z,4.00
2018-11-25T01:55:32.157Z,4.00
2018-11-25T01:58:30.554Z,4.00
2018-11-25T02:01:28.738Z,4.00
2018-11-25T02:04:26.661Z,4.00
2018-11-25T02:07:26.142Z,4.00
2018-11-25T02:10:25.215Z,4.00
2018-11-25T02:13:23.329Z,4.00
2018-11-25T02:16:21.273Z,4.00
2018-11-25T02:19:19.116Z,4.10
2018-11-25T02:22:17.274Z,4.00
2018-11-25T02:25:15.344Z,4.00
2018-11-25T02:28:13.724Z,3.90
2018-11-25T02:31:11.965Z,3.90
2018-11-25T02:34:10.240Z,3.80
2018-11-25T02:37:08.637Z,3.80
2018-11-25T02:40:06.791Z,3.70
2018-11-25T02:43:04.843Z,3.60
2018-11-25T02:46:03.285Z,3.50
2018-11-25T02:49:01.536Z,3.40
2018-11-25T02:52:00.293Z,3.40
2018-11-25T02:54:58.592Z,3.50
2018-11-25T02:57:57.032Z,3.50
2018-11-25T03:00:55.631Z,3.50
2018-11-25T03:03:54.034Z,3.50
2018-11-25T03:06:52.246Z,3.40
2018-11-25T03:09:50.625Z,3.30
2018-11-25T03:12:48.994Z,3.30
2018-11-25T03:15:47.502Z,3.30
2018-11-25T03:18:45.751Z,3.30
2018-11-25T03:21:44.211Z,3.30
2018-11-25T03:24:42.592Z,3.30
2018-11-25T03:27:40.952Z,3.20
2018-11-25T03:30:43.392Z,3.20
2018-11-25T03:33:41.806Z,3.10
2018-11-25T03:36:40.976Z,3.10
2018-11-25T03:39:39.230Z,3.10
2018-11-25T03:42:37.251Z,3.00
2018-11-25T03:45:36.371Z,3.00
2018-11-25T03:48:34.522Z,3.00
2018-11-25T03:51:32.712Z,2.90
2018-11-25T03:54:30.988Z,2.90
2018-11-25T03:57:29.108Z,2.90
2018-11-25T04:00:32.695Z,2.90
2018-11-25T04:03:32.149Z,2.90
2018-11-25T04:06:30.530Z,2.80
2018-11-25T04:09:30.909Z,2.70
2018-11-25T04:12:29.853Z,2.70
2018-11-25T04:15:30.335Z,2.70
2018-11-25T04:18:28.845Z,2.60
2018-11-25T04:21:27.218Z,2.70
2018-11-25T04:24:25.363Z,2.70
2018-11-25T04:27:23.536Z,2.70
2018-11-25T04:30:26.732Z,2.70
2018-11-25T04:33:24.971Z,2.60
2018-11-25T04:36:23.204Z,2.50
2018-11-25T04:39:23.639Z,2.50
2018-11-25T04:42:22.123Z,2.50
2018-11-25T04:45:21.423Z,2.50
2018-11-25T04:48:19.966Z,2.50
2018-11-25T04:51:18.084Z,2.50
2018-11-25T04:54:16.004Z,2.50
2018-11-25T04:57:14.069Z,2.40
2018-11-25T05:00:12.707Z,2.40
2018-11-25T05:03:10.905Z,2.50
2018-11-25T05:06:09.353Z,2.50
2018-11-25T05:09:07.948Z,2.50
2018-11-25T05:12:06.424Z,2.40
2018-11-25T05:15:04.674Z,2.40
2018-11-25T05:18:02.830Z,2.30
2018-11-25T05:21:01.650Z,2.20
2018-11-25T05:23:59.560Z,2.20
2018-11-25T05:26:57.840Z,2.10
2018-11-25T05:29:56.511Z,2.00
2018-11-25T05:32:54.879Z,2.00
2018-11-25T05:35:53.363Z,1.90
2018-11-25T05:38:51.630Z,1.80
2018-11-25T05:41:49.745Z,1.80
2018-11-25T05:44:47.819Z,1.70
2018-11-25T05:47:46.179Z,1.60
2018-11-25T05:50:44.467Z,1.60
2018-11-25T05:53:42.560Z,1.50
2018-11-25T05:56:40.687Z,1.50
2018-11-25T05:59:38.883Z,1.40
2018-11-25T06:02:37.076Z,1.40
2018-11-25T06:05:35.490Z,1.30
2018-11-25T06:08:33.877Z,1.30
2018-11-25T06:11:32.236Z,1.30
2018-11-25T06:14:30.439Z,1.20
2018-11-25T06:17:28.558Z,1.20
2018-11-25T06:20:34.109Z,1.20
2018-11-25T06:23:32.301Z,1.20
2018-11-25T06:26:30.906Z,1.10
2018-11-25T06:29:28.865Z,1.10
2018-11-25T06:32:27.337Z,1.10
2018-11-25T06:35:26.848Z,1.10
2018-11-25T06:38:24.854Z,1.10
2018-11-25T06:41:23.207Z,1.20
2018-11-25T06:44:21.827Z,1.20
2018-11-25T06:47:20.727Z,1.20
2018-11-25T06:50:20.310Z,1.20
2018-11-25T06:53:18.971Z,1.20
2018-11-25T06:56:17.564Z,1.10
2018-11-25T06:59:16.000Z,1.10
2018-11-25T07:02:14.714Z,1.10
2018-11-25T07:05:13.188Z,1.10
2018-11-25T07:08:11.287Z,1.10
2018-11-25T07:11:09.515Z,1.10
2018-11-25T07:14:07.880Z,1.10
2018-11-25T07:17:06.215Z,1.10
2018-11-25T07:20:04.517Z,1.20
2018-11-25T07:23:02.600Z,1.10
2018-11-25T07:26:01.035Z,1.20
2018-11-25T07:28:59.104Z,1.20
2018-11-25T07:31:57.454Z,1.30
2018-11-25T07:34:55.746Z,1.30
2018-11-25T07:37:53.743Z,1.40
2018-11-25T07:40:51.967Z,1.50
2018-11-25T07:43:49.769Z,1.50
2018-11-25T07:46:48.071Z,1.50
2018-11-25T07:49:46.844Z,1.60
2018-11-25T07:52:45.305Z,1.70
2018-11-25T07:55:45.427Z,1.90
2018-11-25T07:58:43.633Z,2.10
2018-11-25T08:01:41.959Z,2.30
2018-11-25T08:04:40.202Z,2.40
2018-11-25T08:07:38.443Z,2.60
2018-11-25T08:10:37.703Z,2.90
2018-11-25T08:13:36.117Z,3.20
2018-11-25T08:16:34.294Z,3.40
2018-11-25T08:19:34.235Z,3.60
2018-11-25T08:22:32.199Z,3.80
2018-11-25T08:25:33.763Z,3.90
2018-11-25T08:28:32.756Z,4.00
2018-11-25T08:31:30.819Z,4.20
2018-11-25T08:34:29.454Z,4.40
2018-11-25T08:37:27.671Z,4.50
2018-11-25T08:40:27.571Z,4.60
2018-11-25T08:43:25.757Z,4.70
2018-11-25T08:46:23.895Z,4.80
2018-11-25T08:49:22.375Z,4.80
2018-11-25T08:52:20.809Z,4.90
2018-11-25T08:55:20.706Z,5.00
2018-11-25T08:58:24.430Z,5.20
2018-11-25T09:01:23.307Z,5.30
2018-11-25T09:04:21.652Z,5.60
2018-11-25T09:07:19.932Z,5.70
2018-11-25T09:10:18.110Z,6.00
2018-11-25T09:13:18.412Z,6.20
2018-11-25T09:16:16.958Z,6.30
2018-11-25T09:19:15.051Z,6.60
2018-11-25T09:22:13.209Z,6.80
2018-11-25T09:25:11.535Z,7.00
2018-11-25T09:28:09.673Z,7.30
2018-11-25T09:31:07.873Z,7.60
2018-11-25T09:34:05.862Z,7.80
2018-11-25T09:37:04.267Z,7.90
2018-11-25T09:40:02.506Z,7.90
2018-11-25T09:43:00.577Z,7.90
2018-11-25T09:45:58.968Z,7.90
2018-11-25T09:48:57.183Z,7.90
2018-11-25T09:51:55.103Z,7.90
2018-11-25T09:54:53.383Z,7.90
2018-11-25T09:57:51.596Z,8.00
2018-11-25T10:00:51.759Z,8.10
2018-11-25T10:03:50.080Z,8.20
2018-11-25T10:06:48.338Z,8.40
2018-11-25T10:09:47.077Z,8.70
2018-11-25T10:12:45.325Z,8.90
2018-11-25T10:15:44.580Z,9.20
2018-11-25T10:18:42.981Z,9.30
2018-11-25T10:21:40.976Z,9.50
2018-11-25T10:24:39.138Z,9.70
2018-11-25T10:27:37.733Z,10.00
2018-11-25T10:30:38.987Z,10.20
2018-11-25T10:33:37.127Z,10.60
2018-11-25T10:36:35.869Z,11.10
2018-11-25T10:39:34.572Z,11.70
2018-11-25T10:42:32.573Z,12.30
2018-11-25T10:45:37.940Z,12.80
2018-11-25T10:48:36.292Z,13.20
2018-11-25T10:51:34.381Z,13.60
2018-11-25T10:54:32.741Z,14.10
2018-11-25T10:57:31.121Z,14.60
2018-11-25T11:00:53.519Z,15.00
2018-11-25T11:03:57.720Z,15.40
2018-11-25T11:07:01.822Z,15.80
2018-11-25T11:09:59.612Z,16.20
2018-11-25T11:12:58.883Z,16.60
2018-11-25T11:15:56.197Z,16.80
2018-11-25T11:18:54.474Z,17.00
2018-11-25T11:21:52.663Z,17.20
2018-11-25T11:24:51.045Z,17.40
2018-11-25T11:27:49.874Z,17.70
2018-11-25T11:30:47.992Z,17.90
2018-11-25T11:33:46.215Z,18.30
2018-11-25T11:36:44.148Z,18.80
2018-11-25T11:39:42.287Z,19.10
2018-11-25T11:42:40.455Z,19.20
2018-11-25T11:45:38.763Z,19.40
2018-11-25T11:48:37.252Z,19.60
2018-11-25T11:51:35.467Z,20.20
2018-11-25T11:54:34.027Z,20.80
2018-11-25T11:57:32.160Z,21.30
2018-11-25T12:00:42.860Z,21.80
2018-11-25T12:03:41.632Z,22.00
2018-11-25T12:06:39.632Z,21.60
2018-11-25T12:09:38.002Z,20.90
2018-11-25T12:12:36.522Z,20.10
2018-11-25T12:15:37.156Z,19.20
2018-11-25T12:18:35.547Z,18.50
2018-11-25T12:21:34.196Z,17.90
2018-11-25T12:24:32.244Z,17.20
2018-11-25T12:27:30.310Z,16.50
2018-11-25T12:30:29.706Z,15.90
2018-11-25T12:33:29.299Z,15.30
2018-11-25T12:36:27.893Z,15.00
2018-11-25T12:39:28.516Z,14.80
2018-11-25T12:42:24.799Z,14.80
2018-11-25T12:45:24.044Z,15.20
2018-11-25T12:48:30.446Z,15.90
2018-11-25T12:51:28.619Z,17.10
2018-11-25T12:54:26.757Z,18.30
2018-11-25T12:57:25.532Z,19.50
2018-11-25T13:00:33.636Z,20.60
2018-11-25T13:03:32.839Z,21.30
2018-11-25T13:06:31.074Z,21.20
2018-11-25T13:09:30.598Z,20.40
2018-11-25T13:12:29.164Z,19.70
2018-11-25T13:15:27.545Z,19.30
2018-11-25T13:18:25.890Z,19.10
2018-11-25T13:21:24.157Z,18.80
2018-11-25T13:24:22.903Z,18.20
2018-11-25T13:27:20.747Z,17.60
2018-11-25T13:30:20.261Z,17.00
2018-11-25T13:33:21.315Z,16.60
2018-11-25T13:36:20.507Z,16.50
2018-11-25T13:39:18.984Z,16.50
2018-11-25T13:42:17.642Z,16.30
2018-11-25T13:45:15.983Z,15.90
2018-11-25T13:48:14.263Z,15.50
2018-11-25T13:51:19.284Z,15.00
2018-11-25T13:54:21.165Z,14.60
2018-11-25T13:57:19.636Z,14.20
2018-11-25T14:00:18.702Z,13.80
2018-11-25T14:03:17.069Z,13.50
2018-11-25T14:06:15.433Z,13.30
2018-11-25T14:09:15.120Z,13.10
2018-11-25T14:12:13.476Z,12.80
2018-11-25T14:15:11.788Z,12.70
2018-11-25T14:18:10.159Z,12.50
2018-11-25T14:21:08.341Z,12.40
2018-11-25T14:24:06.649Z,12.30
2018-11-25T14:27:08.625Z,12.20
2018-11-25T14:30:13.222Z,12.10
2018-11-25T14:33:06.172Z,11.90
2018-11-25T14:36:04.638Z,11.80
2018-11-25T14:39:03.002Z,11.70
2018-11-25T14:42:01.011Z,11.50
2018-11-25T14:45:00.602Z,11.40
2018-11-25T14:48:01.233Z,11.30
2018-11-25T14:50:59.651Z,11.20
2018-11-25T14:53:57.834Z,11.10
2018-11-25T14:56:56.472Z,11.10
2018-11-25T14:59:54.724Z,11.00
2018-11-25T15:02:53.214Z,10.90
2018-11-25T15:05:54.362Z,10.90
2018-11-25T15:08:52.444Z,10.80
2018-11-25T15:11:51.209Z,10.60
2018-11-25T15:14:50.052Z,10.60
2018-11-25T15:17:48.329Z,10.50
2018-11-25T15:20:46.688Z,10.30
2018-11-25T15:23:44.978Z,10.20
2018-11-25T15:26:43.229Z,10.20
2018-11-25T15:29:41.483Z,10.10
2018-11-25T15:32:39.826Z,10.00
2018-11-25T15:35:37.902Z,10.00
2018-11-25T15:38:36.384Z,10.00
2018-11-25T15:41:34.754Z,9.90
2018-11-25T15:44:33.033Z,9.90
2018-11-25T15:47:31.908Z,9.90
2018-11-25T15:50:35.094Z,9.80
2018-11-25T15:53:33.439Z,9.80
2018-11-25T15:56:33.187Z,9.70
2018-11-25T15:59:31.720Z,9.70
2018-11-25T16:02:30.272Z,9.60
2018-11-25T16:05:30.809Z,9.50
2018-11-25T16:08:28.851Z,9.50
2018-11-25T16:11:28.372Z,9.40
2018-11-25T16:14:26.945Z,9.30
2018-11-25T16:17:25.306Z,9.20
2018-11-25T16:20:25.523Z,9.20
2018-11-25T16:23:27.971Z,9.20
2018-11-25T16:26:35.789Z,9.10
2018-11-25T16:29:38.027Z,9.10
2018-11-25T16:32:36.274Z,9.00
2018-11-25T16:35:34.637Z,9.00
2018-11-25T16:38:32.519Z,8.90
2018-11-25T16:41:30.695Z,8.90
2018-11-25T16:44:28.949Z,8.80
2018-11-25T16:47:27.311Z,8.70
2018-11-25T16:50:27.078Z,8.70
2018-11-25T16:53:25.347Z,8.70
2018-11-25T16:56:23.506Z,8.60
2018-11-25T16:59:21.563Z,8.60
2018-11-25T17:02:20.865Z,8.50
2018-11-25T17:05:21.064Z,8.50
2018-11-25T17:08:24.666Z,8.50
2018-11-25T17:11:23.252Z,8.40
2018-11-25T17:14:21.520Z,8.40
2018-11-25T17:17:20.475Z,8.30
2018-11-25T17:20:18.867Z,8.30
2018-11-25T17:23:17.441Z,8.20
2018-11-25T17:26:15.808Z,8.20
2018-11-25T17:29:14.054Z,8.10
2018-11-25T17:32:11.891Z,8.10
2018-11-25T17:35:10.294Z,8.10
2018-11-25T17:38:08.347Z,8.10
2018-11-25T17:41:07.004Z,8.00
2018-11-25T17:44:05.494Z,8.00
2018-11-25T17:47:04.259Z,8.00
2018-11-25T17:50:02.628Z,8.00
2018-11-25T17:53:01.064Z,8.00
2018-11-25T17:55:59.249Z,8.00
2018-11-25T17:58:58.675Z,8.00
2018-11-25T18:01:57.136Z,8.00
2018-11-25T18:04:55.563Z,8.00
2018-11-25T18:07:54.746Z,8.00
2018-11-25T18:10:52.958Z,8.00
2018-11-25T18:13:53.109Z,8.00
2018-11-25T18:16:51.567Z,8.00
2018-11-25T18:19:49.672Z,8.00
2018-11-25T18:22:49.939Z,8.00
2018-11-25T18:25:48.338Z,8.00
2018-11-25T18:28:46.881Z,8.00
2018-11-25T18:31:45.315Z,8.10
2018-11-25T18:34:44.817Z,8.10
2018-11-25T18:37:43.458Z,8.10
2018-11-25T18:40:41.666Z,8.10
2018-11-25T18:43:40.325Z,8.10
2018-11-25T18:46:46.505Z,8.10
2018-11-25T18:49:39.208Z,8.10
2018-11-25T18:52:37.646Z,8.10
2018-11-25T18:55:35.715Z,8.10
2018-11-25T18:58:34.457Z,8.20
2018-11-25T19:01:43.968Z,8.10
2018-11-25T19:04:42.060Z,8.10
2018-11-25T19:07:40.639Z,8.10
2018-11-25T19:10:39.916Z,8.10
2018-11-25T19:13:38.199Z,8.10
2018-11-25T19:16:37.650Z,8.20
2018-11-25T19:19:34.735Z,8.20
2018-11-25T19:22:33.130Z,8.20
2018-11-25T19:25:33.415Z,8.20
2018-11-25T19:28:32.942Z,8.20
2018-11-25T19:31:31.043Z,8.20
2018-11-25T19:34:29.795Z,8.20
2018-11-25T19:37:27.912Z,8.20
2018-11-25T19:40:34.627Z,8.20
2018-11-25T19:43:32.711Z,8.20
2018-11-25T19:46:30.868Z,8.20
2018-11-25T19:49:29.201Z,8.20
2018-11-25T19:52:27.197Z,8.20
2018-11-25T19:55:25.512Z,8.20
2018-11-25T19:58:23.829Z,8.20
2018-11-25T20:01:22.255Z,8.20
2018-11-25T20:04:20.441Z,8.20
2018-11-25T20:07:18.677Z,8.20
2018-11-25T20:10:17.097Z,8.10
2018-11-25T20:13:18.267Z,8.10
2018-11-25T20:16:22.534Z,8.10
2018-11-25T20:19:20.816Z,8.10
2018-11-25T20:22:25.113Z,8.00
2018-11-25T20:25:25.198Z,8.00
2018-11-25T20:28:23.637Z,8.00
2018-11-25T20:31:21.762Z,7.90
2018-11-25T20:34:20.007Z,7.90
2018-11-25T20:37:18.278Z,7.90
2018-11-25T20:40:16.546Z,7.90
2018-11-25T20:43:14.667Z,7.80
2018-11-25T20:46:18.777Z,7.80
2018-11-25T20:50:19.894Z,7.80
2018-11-25T20:53:23.774Z,7.70
2018-11-25T20:56:22.436Z,7.60
2018-11-25T20:59:20.685Z,7.60
2018-11-25T21:02:20.356Z,7.60
2018-11-25T21:05:17.732Z,7.60
2018-11-25T21:08:15.913Z,7.50
2018-11-25T21:11:14.069Z,7.50
2018-11-25T21:14:12.453Z,7.50
2018-11-25T21:17:10.419Z,7.50
2018-11-25T21:20:08.772Z,7.50
2018-11-25T21:23:07.315Z,7.40
2018-11-25T21:26:05.969Z,7.40
2018-11-25T21:29:04.087Z,7.40
2018-11-25T21:32:02.555Z,7.30
2018-11-25T21:35:01.019Z,7.30
2018-11-25T21:37:59.375Z,7.30
2018-11-25T21:40:57.925Z,7.20
2018-11-25T21:43:56.329Z,7.20
2018-11-25T21:46:56.246Z,7.20
2018-11-25T21:49:55.108Z,7.20
2018-11-25T21:52:53.821Z,7.20
2018-11-25T21:58:50.714Z,7.10
2018-11-25T22:01:49.222Z,7.10
2018-11-25T22:04:47.859Z,7.00
2018-11-25T22:07:46.156Z,7.00
2018-11-25T22:10:44.911Z,7.00
2018-11-25T22:13:43.598Z,7.00
2018-11-25T22:16:41.950Z,7.00
2018-11-25T22:19:40.227Z,7.00
2018-11-25T22:22:38.679Z,6.90
2018-11-25T22:25:38.185Z,6.90
2018-11-25T22:28:36.449Z,6.90
2018-11-25T22:31:34.886Z,6.90
2018-11-25T22:34:33.130Z,6.90
2018-11-25T22:37:31.425Z,6.90
2018-11-25T22:40:30.695Z,6.90
2018-11-25T22:43:29.215Z,6.90
2018-11-25T22:46:29.140Z,6.90
2018-11-25T22:49:27.534Z,6.90
2018-11-25T22:52:25.415Z,6.90
2018-11-25T22:55:33.102Z,6.90
2018-11-25T22:58:31.482Z,6.90
2018-11-25T23:01:29.543Z,6.80
2018-11-25T23:04:49.799Z,6.80
2018-11-25T23:07:47.855Z,6.80
2018-11-25T23:10:46.336Z,6.80
2018-11-25T23:13:44.540Z,6.80
2018-11-25T23:16:43.092Z,6.90
2018-11-25T23:19:43.034Z,6.90
2018-11-25T23:22:41.457Z,7.00
2018-11-25T23:25:39.575Z,7.00
2018-11-25T23:28:37.974Z,7.00
2018-11-25T23:31:36.368Z,7.00
2018-11-25T23:34:34.518Z,7.10
2018-11-25T23:37:35.778Z,7.10
2018-11-25T23:40:37.732Z,7.10
2018-11-25T23:43:36.594Z,7.10
2018-11-25T23:46:35.559Z,7.10
2018-11-25T23:49:33.711Z,7.10
2018-11-25T23:52:31.752Z,7.10
2018-11-25T23:55:30.940Z,7.10
2018-11-25T23:58:29.202Z,7.10
